createdAt,value
2024-05-09T00:01:51.138Z,96.20
2024-05-09T00:04:21.234Z,95.30
2024-05-09T00:06:53.849Z,95.70
2024-05-09T00:09:23.870Z,96.60
2024-05-09T00:11:54.599Z,96.00
2024-05-09T00:14:24.774Z,96.00
2024-05-09T00:16:54.841Z,95.80
2024-05-09T00:19:25.047Z,96.20
2024-05-09T00:21:57.729Z,95.80
2024-05-09T00:24:27.755Z,96.20
2024-05-09T00:26:57.753Z,96.40
2024-05-09T00:29:27.815Z,96.50
2024-05-09T00:31:57.936Z,97.00
2024-05-09T00:34:28.112Z,97.10
2024-05-09T00:37:00.851Z,97.00
2024-05-09T00:39:30.844Z,98.00
2024-05-09T00:42:01.024Z,97.50
2024-05-09T00:44:31.106Z,97.60
2024-05-09T00:47:01.294Z,97.60
2024-05-09T00:49:31.812Z,97.90
2024-05-09T00:52:05.210Z,99.10
2024-05-09T00:54:35.867Z,98.30
2024-05-09T00:57:07.510Z,98.80
2024-05-09T00:59:38.212Z,98.70
2024-05-09T01:02:09.824Z,99.80
2024-05-09T01:04:39.998Z,98.40
2024-05-09T01:07:15.565Z,98.10
2024-05-09T01:09:45.553Z,98.70
2024-05-09T01:12:16.381Z,98.50
2024-05-09T01:14:46.447Z,99.60
2024-05-09T01:17:17.124Z,99.50
2024-05-09T01:19:47.444Z,99.60
2024-05-09T01:22:20.136Z,99.90
2024-05-09T01:24:52.788Z,99.90
2024-05-09T01:27:22.786Z,99.80
2024-05-09T01:29:52.772Z,98.90
2024-05-09T01:32:22.972Z,99.90
2024-05-09T01:34:53.146Z,99.90
2024-05-09T01:37:23.165Z,99.90
2024-05-09T01:39:55.816Z,99.90
2024-05-09T01:42:25.830Z,99.70
2024-05-09T01:44:55.853Z,99.90
2024-05-09T01:47:26.147Z,99.90
2024-05-09T01:49:57.271Z,99.90
2024-05-09T01:52:27.386Z,99.90
2024-05-09T01:55:02.773Z,99.90
2024-05-09T01:57:34.742Z,99.90
2024-05-09T02:00:07.721Z,99.90
2024-05-09T02:02:40.599Z,99.90
2024-05-09T02:05:11.067Z,99.90
2024-05-09T02:07:41.173Z,99.90
2024-05-09T02:10:20.350Z,99.90
2024-05-09T02:12:53.604Z,99.90
2024-05-09T02:15:23.647Z,99.90
2024-05-09T02:17:53.880Z,99.90
2024-05-09T02:20:33.094Z,99.90
2024-05-09T02:23:07.028Z,99.90
2024-05-09T02:25:40.064Z,99.90
2024-05-09T02:28:10.344Z,99.90
2024-05-09T02:30:42.116Z,99.90
2024-05-09T02:33:14.414Z,99.90
2024-05-09T02:35:45.964Z,99.90
2024-05-09T02:38:13.734Z,99.90
2024-05-09T02:40:46.515Z,99.90
2024-05-09T02:43:13.970Z,99.90
2024-05-09T02:45:44.133Z,99.90
2024-05-09T02:48:13.289Z,99.90
2024-05-09T02:50:44.638Z,99.90
2024-05-09T02:53:12.630Z,99.90
2024-05-09T02:55:43.739Z,99.90
2024-05-09T02:58:13.854Z,99.90
2024-05-09T03:00:43.885Z,99.90
2024-05-09T03:03:14.090Z,99.90
2024-05-09T03:05:46.205Z,99.90
2024-05-09T03:08:14.374Z,99.90
2024-05-09T03:10:44.690Z,99.90
2024-05-09T03:13:16.070Z,99.90
2024-05-09T03:15:46.522Z,99.90
2024-05-09T03:18:14.235Z,99.90
2024-05-09T03:20:44.809Z,99.90
2024-05-09T03:23:15.018Z,99.90
2024-05-09T03:25:45.097Z,99.70
2024-05-09T03:28:15.173Z,99.90
2024-05-09T03:30:45.179Z,99.30
2024-05-09T03:33:15.286Z,99.90
2024-05-09T03:35:46.232Z,99.10
2024-05-09T03:38:16.669Z,99.30
2024-05-09T03:40:51.457Z,99.90
2024-05-09T03:43:24.827Z,98.70
2024-05-09T03:45:54.830Z,99.10
2024-05-09T03:48:22.408Z,98.60
2024-05-09T03:50:53.157Z,98.20
2024-05-09T03:53:21.012Z,98.40
2024-05-09T03:55:52.695Z,98.60
2024-05-09T03:58:22.707Z,97.60
2024-05-09T04:00:52.811Z,98.00
2024-05-09T04:03:20.557Z,98.50
2024-05-09T04:05:50.809Z,97.90
2024-05-09T04:08:18.918Z,98.80
2024-05-09T04:10:49.119Z,98.20
2024-05-09T04:13:16.646Z,97.70
2024-05-09T04:15:49.217Z,97.70
2024-05-09T04:18:17.805Z,97.20
2024-05-09T04:20:47.963Z,97.10
2024-05-09T04:23:15.489Z,97.00
2024-05-09T04:25:47.370Z,97.60
2024-05-09T04:28:15.058Z,97.00
2024-05-09T04:30:45.323Z,97.70
2024-05-09T04:33:19.820Z,97.60
2024-05-09T04:35:49.959Z,97.20
2024-05-09T04:38:17.450Z,98.30
2024-05-09T04:40:47.574Z,98.20
2024-05-09T04:43:15.878Z,98.30
2024-05-09T04:45:46.215Z,98.50
2024-05-09T04:48:16.987Z,98.30
2024-05-09T04:50:47.289Z,97.50
2024-05-09T04:53:16.832Z,98.00
2024-05-09T04:55:47.097Z,98.40
2024-05-09T04:58:14.520Z,97.60
2024-05-09T05:00:46.040Z,96.70
2024-05-09T05:03:16.921Z,97.90
2024-05-09T05:05:47.777Z,97.30
2024-05-09T05:08:17.164Z,96.80
2024-05-09T05:10:49.464Z,96.90
2024-05-09T05:13:20.252Z,97.50
2024-05-09T05:15:53.577Z,96.80
2024-05-09T05:18:24.378Z,97.00
2024-05-09T05:20:54.785Z,96.40
2024-05-09T05:23:23.270Z,96.60
2024-05-09T05:25:55.184Z,96.50
2024-05-09T05:28:23.200Z,96.40
2024-05-09T05:30:53.276Z,96.00
2024-05-09T05:33:23.740Z,95.90
2024-05-09T05:35:53.832Z,96.10
2024-05-09T05:38:27.240Z,96.00
2024-05-09T05:40:55.855Z,95.90
2024-05-09T05:43:25.976Z,96.60
2024-05-09T05:45:53.485Z,95.00
2024-05-09T05:48:26.290Z,96.80
2024-05-09T05:50:53.993Z,95.50
2024-05-09T05:53:24.134Z,96.30
2024-05-09T05:55:51.793Z,95.90
2024-05-09T05:58:22.530Z,95.20
2024-05-09T06:00:53.023Z,96.30
2024-05-09T06:03:25.739Z,95.70
2024-05-09T06:05:53.281Z,95.00
2024-05-09T06:08:24.707Z,95.50
2024-05-09T06:10:53.175Z,95.00
2024-05-09T06:13:23.221Z,95.30
2024-05-09T06:15:50.704Z,95.40
2024-05-09T06:18:20.961Z,94.00
2024-05-09T06:20:52.447Z,95.00
2024-05-09T06:23:22.700Z,94.00
2024-05-09T06:25:50.252Z,94.00
2024-05-09T06:28:20.280Z,93.70
2024-05-09T06:30:47.717Z,92.90
2024-05-09T06:33:18.030Z,93.00
2024-05-09T06:35:47.033Z,93.00
2024-05-09T06:38:19.771Z,91.30
2024-05-09T06:40:47.236Z,92.20
2024-05-09T06:43:19.479Z,91.60
2024-05-09T06:45:48.473Z,91.30
2024-05-09T06:48:22.082Z,91.80
2024-05-09T06:50:50.649Z,91.70
2024-05-09T06:53:25.353Z,91.80
2024-05-09T06:55:53.072Z,92.30
2024-05-09T06:58:23.138Z,91.60
2024-05-09T07:00:50.703Z,91.60
2024-05-09T07:03:21.090Z,91.10
2024-05-09T07:05:49.668Z,90.50
2024-05-09T07:08:20.201Z,90.20
2024-05-09T07:10:50.515Z,90.00
2024-05-09T07:13:20.675Z,89.00
2024-05-09T07:15:48.093Z,90.30
2024-05-09T07:18:20.089Z,88.10
2024-05-09T07:20:49.560Z,87.50
2024-05-09T07:23:21.363Z,88.10
2024-05-09T07:25:51.519Z,85.70
2024-05-09T07:28:23.512Z,86.60
2024-05-09T07:30:50.932Z,88.30
2024-05-09T07:33:23.119Z,92.70
2024-05-09T07:35:51.908Z,86.40
2024-05-09T07:38:22.261Z,87.60
2024-05-09T07:40:52.542Z,87.80
2024-05-09T07:43:22.636Z,90.00
2024-05-09T07:45:54.043Z,87.20
2024-05-09T07:50:00.075Z,85.50
2024-05-09T07:53:52.147Z,84.80
2024-05-09T07:56:26.045Z,84.10
2024-05-09T07:58:56.636Z,78.10
2024-05-09T08:01:26.435Z,80.00
2024-05-09T08:03:57.415Z,78.40
2024-05-09T08:06:25.516Z,75.90
2024-05-09T08:08:56.056Z,76.30
2024-05-09T08:11:26.866Z,75.60
2024-05-09T08:13:56.931Z,74.40
2024-05-09T08:16:24.494Z,75.70
2024-05-09T08:18:54.598Z,76.30
2024-05-09T08:21:22.054Z,75.40
2024-05-09T08:23:52.314Z,75.60
2024-05-09T08:26:19.792Z,71.80
2024-05-09T08:28:52.398Z,69.50
2024-05-09T08:31:19.935Z,73.10
2024-05-09T08:33:51.581Z,73.80
2024-05-09T08:36:20.055Z,72.50
2024-05-09T08:38:50.082Z,70.00
2024-05-09T08:41:17.501Z,68.80
2024-05-09T08:43:47.815Z,66.00
2024-05-09T08:46:18.695Z,66.80
2024-05-09T08:48:54.892Z,64.30
2024-05-09T08:51:26.168Z,66.90
2024-05-09T08:53:56.261Z,66.40
2024-05-09T08:56:28.162Z,62.70
2024-05-09T08:59:02.708Z,62.40
2024-05-09T09:01:33.368Z,59.80
2024-05-09T09:04:06.646Z,61.20
2024-05-09T09:06:35.900Z,65.80
2024-05-09T09:09:07.019Z,62.90
2024-05-09T09:11:34.534Z,65.50
2024-05-09T09:14:04.591Z,65.80
2024-05-09T09:16:35.888Z,65.60
2024-05-09T09:19:06.864Z,66.10
2024-05-09T09:21:35.022Z,64.30
2024-05-09T09:24:06.962Z,65.50
2024-05-09T09:26:35.526Z,63.10
2024-05-09T09:29:05.595Z,61.30
2024-05-09T09:31:37.292Z,62.60
2024-05-09T09:34:10.721Z,65.30
2024-05-09T09:36:41.243Z,65.70
2024-05-09T09:39:12.773Z,63.10
2024-05-09T09:41:43.388Z,60.80
2024-05-09T09:44:13.621Z,63.60
2024-05-09T09:46:45.273Z,64.80
2024-05-09T09:49:15.591Z,56.40
2024-05-09T09:51:44.807Z,57.50
2024-05-09T09:54:16.598Z,59.50
2024-05-09T09:56:48.361Z,61.70
2024-05-09T09:59:19.692Z,61.30
2024-05-09T10:01:49.865Z,62.90
2024-05-09T10:04:21.194Z,63.80
2024-05-09T10:06:52.578Z,61.50
2024-05-09T10:09:22.851Z,59.70
2024-05-09T10:11:58.018Z,63.30
2024-05-09T10:14:33.405Z,62.70
2024-05-09T10:17:07.280Z,62.40
2024-05-09T10:19:37.398Z,60.40
2024-05-09T10:22:05.983Z,61.40
2024-05-09T10:24:49.865Z,59.50
2024-05-09T10:27:25.701Z,62.20
2024-05-09T10:29:56.104Z,63.70
2024-05-09T10:32:27.967Z,65.90
2024-05-09T10:35:08.230Z,66.40
2024-05-09T10:37:36.163Z,66.10
2024-05-09T10:40:11.957Z,59.90
2024-05-09T10:42:45.288Z,58.00
2024-05-09T10:45:18.530Z,62.40
2024-05-09T10:47:48.719Z,64.50
2024-05-09T10:50:25.655Z,60.00
2024-05-09T10:52:56.446Z,62.30
2024-05-09T10:55:27.372Z,64.30
2024-05-09T10:57:54.926Z,66.10
2024-05-09T11:00:30.671Z,64.40
2024-05-09T11:03:06.239Z,61.90
2024-05-09T11:05:36.753Z,61.70
2024-05-09T11:08:05.003Z,60.20
2024-05-09T11:10:35.192Z,62.30
2024-05-09T11:13:02.776Z,60.30
2024-05-09T11:15:41.578Z,65.10
2024-05-09T11:18:24.925Z,65.10
2024-05-09T11:20:56.752Z,62.80
2024-05-09T11:23:26.171Z,62.20
2024-05-09T11:25:57.512Z,62.20
2024-05-09T11:28:28.149Z,64.40
2024-05-09T11:31:09.637Z,60.10
2024-05-09T11:33:43.491Z,59.40
2024-05-09T11:36:13.836Z,60.90
2024-05-09T11:38:41.270Z,60.50
2024-05-09T11:41:11.419Z,60.10
2024-05-09T11:43:38.825Z,61.70
2024-05-09T11:46:08.910Z,62.20
2024-05-09T11:48:36.622Z,60.40
2024-05-09T11:51:09.490Z,62.10
2024-05-09T11:53:36.908Z,59.60
2024-05-09T11:56:07.435Z,59.60
2024-05-09T11:58:37.345Z,59.80
2024-05-09T12:01:07.921Z,61.40
2024-05-09T12:03:37.741Z,63.70
2024-05-09T12:06:10.718Z,62.90
2024-05-09T12:08:38.811Z,63.90
2024-05-09T12:11:09.010Z,64.60
2024-05-09T12:13:36.648Z,62.30
2024-05-09T12:16:06.851Z,64.20
2024-05-09T12:18:34.382Z,65.00
2024-05-09T12:21:04.912Z,62.30
2024-05-09T12:23:34.945Z,64.00
2024-05-09T12:26:05.502Z,62.80
2024-05-09T12:28:33.030Z,66.10
2024-05-09T12:31:03.077Z,62.20
2024-05-09T12:33:30.665Z,61.80
2024-05-09T12:36:00.973Z,61.40
2024-05-09T12:38:28.417Z,61.20
2024-05-09T12:41:01.084Z,62.00
2024-05-09T12:43:28.581Z,65.80
2024-05-09T12:45:58.831Z,61.70
2024-05-09T12:48:26.380Z,61.80
2024-05-09T12:50:57.490Z,63.40
2024-05-09T12:53:24.978Z,61.30
2024-05-09T12:55:59.936Z,63.80
2024-05-09T12:58:32.320Z,62.00
2024-05-09T13:01:02.434Z,63.40
2024-05-09T13:03:30.036Z,63.10
2024-05-09T13:06:00.523Z,63.00
2024-05-09T13:08:28.002Z,62.60
2024-05-09T13:10:58.118Z,65.10
2024-05-09T13:13:26.054Z,62.80
2024-05-09T13:15:58.888Z,64.10
2024-05-09T13:18:26.465Z,63.10
2024-05-09T13:20:56.549Z,64.40
2024-05-09T13:23:23.998Z,65.00
2024-05-09T13:25:54.138Z,63.60
2024-05-09T13:28:22.680Z,66.50
2024-05-09T13:30:52.763Z,65.30
2024-05-09T13:33:23.111Z,65.40
2024-05-09T13:35:53.264Z,65.70
2024-05-09T13:38:23.710Z,65.30
2024-05-09T13:40:51.392Z,63.20
2024-05-09T13:43:22.034Z,64.70
2024-05-09T13:45:50.080Z,62.30
2024-05-09T13:48:20.474Z,60.30
2024-05-09T13:50:50.652Z,61.50
2024-05-09T13:53:20.677Z,63.50
2024-05-09T13:55:48.737Z,64.40
2024-05-09T13:58:18.885Z,62.50
2024-05-09T14:00:48.949Z,63.60
2024-05-09T14:03:21.301Z,61.60
2024-05-09T14:05:54.452Z,60.70
2024-05-09T14:08:23.065Z,62.10
2024-05-09T14:10:53.712Z,59.50
2024-05-09T14:13:21.394Z,60.20
2024-05-09T14:15:51.870Z,63.00
2024-05-09T14:18:19.737Z,63.50
2024-05-09T14:20:49.796Z,59.20
2024-05-09T14:23:20.486Z,58.50
2024-05-09T14:25:52.855Z,59.10
2024-05-09T14:28:21.023Z,59.60
2024-05-09T14:30:51.267Z,59.40
2024-05-09T14:33:23.534Z,58.70
2024-05-09T14:35:53.730Z,59.60
2024-05-09T14:38:23.898Z,62.60
2024-05-09T14:40:54.228Z,59.50
2024-05-09T14:43:22.176Z,58.60
2024-05-09T14:45:53.241Z,60.00
2024-05-09T14:48:21.140Z,59.20
2024-05-09T14:50:51.308Z,60.20
2024-05-09T14:53:18.731Z,58.80
2024-05-09T14:55:51.656Z,59.80
2024-05-09T14:58:19.710Z,60.60
2024-05-09T15:00:51.728Z,59.10
2024-05-09T15:03:20.818Z,59.90
2024-05-09T15:05:52.343Z,59.30
2024-05-09T15:08:20.396Z,60.60
2024-05-09T15:10:53.325Z,60.20
2024-05-09T15:13:21.599Z,58.80
2024-05-09T15:15:51.914Z,58.00
2024-05-09T15:18:19.853Z,58.40
2024-05-09T15:20:50.335Z,57.50
2024-05-09T15:23:18.028Z,58.60
2024-05-09T15:25:48.160Z,60.00
2024-05-09T15:28:18.832Z,58.80
2024-05-09T15:30:49.029Z,61.20
2024-05-09T15:33:16.542Z,60.50
2024-05-09T15:35:46.954Z,61.00
2024-05-09T15:38:15.690Z,58.80
2024-05-09T15:40:45.987Z,59.20
2024-05-09T15:43:13.738Z,59.00
2024-05-09T15:45:46.526Z,58.60
2024-05-09T15:48:14.565Z,58.70
2024-05-09T15:50:45.204Z,58.70
2024-05-09T15:53:13.845Z,60.20
2024-05-09T15:55:45.579Z,59.30
2024-05-09T15:58:13.452Z,58.30
2024-05-09T16:00:49.571Z,59.90
2024-05-09T16:03:21.072Z,58.70
2024-05-09T16:05:51.764Z,60.30
2024-05-09T16:08:19.374Z,60.50
2024-05-09T16:10:49.854Z,59.40
2024-05-09T16:13:18.028Z,59.00
2024-05-09T16:15:51.091Z,57.90
2024-05-09T16:18:19.602Z,57.90
2024-05-09T16:20:50.501Z,58.60
2024-05-09T16:23:18.168Z,59.90
2024-05-09T16:25:48.642Z,59.20
2024-05-09T16:28:16.922Z,59.10
2024-05-09T16:30:47.084Z,60.00
2024-05-09T16:33:20.727Z,59.50
2024-05-09T16:35:50.991Z,60.70
2024-05-09T16:38:18.639Z,60.10
2024-05-09T16:40:48.939Z,61.00
2024-05-09T16:43:16.883Z,60.20
2024-05-09T16:45:47.331Z,60.90
2024-05-09T16:48:17.584Z,61.40
2024-05-09T16:50:47.660Z,61.10
2024-05-09T16:53:15.151Z,59.70
2024-05-09T16:55:45.166Z,60.20
2024-05-09T16:58:13.209Z,60.50
2024-05-09T17:00:44.392Z,59.00
2024-05-09T17:03:14.971Z,60.90
2024-05-09T17:05:50.376Z,61.60
2024-05-09T17:08:18.545Z,61.10
2024-05-09T17:10:49.918Z,61.90
2024-05-09T17:13:21.106Z,63.10
2024-05-09T17:15:51.739Z,65.10
2024-05-09T17:18:21.969Z,59.70
2024-05-09T17:20:54.825Z,64.50
2024-05-09T17:23:22.438Z,63.50
2024-05-09T17:25:52.532Z,63.30
2024-05-09T17:28:20.354Z,64.70
2024-05-09T17:30:51.010Z,63.10
2024-05-09T17:33:18.706Z,61.70
2024-05-09T17:35:50.359Z,61.60
2024-05-09T17:38:23.256Z,64.80
2024-05-09T17:40:54.333Z,62.40
2024-05-09T17:43:22.114Z,63.30
2024-05-09T17:45:52.359Z,64.10
2024-05-09T17:48:20.063Z,63.90
2024-05-09T17:50:51.381Z,63.50
2024-05-09T17:53:21.584Z,63.50
2024-05-09T17:55:53.777Z,64.20
2024-05-09T17:58:21.496Z,63.60
2024-05-09T18:00:52.240Z,62.30
2024-05-09T18:03:19.960Z,62.00
2024-05-09T18:05:50.203Z,64.10
2024-05-09T18:08:17.779Z,64.00
2024-05-09T18:10:52.137Z,64.00
2024-05-09T18:13:20.971Z,64.20
2024-05-09T18:15:51.342Z,65.00
2024-05-09T18:18:18.912Z,65.50
2024-05-09T18:20:49.199Z,64.00
2024-05-09T18:23:18.690Z,65.90
2024-05-09T18:25:54.431Z,65.40
2024-05-09T18:28:22.490Z,64.50
2024-05-09T18:30:52.718Z,64.20
2024-05-09T18:33:20.699Z,65.80
2024-05-09T18:35:50.802Z,65.20
2024-05-09T18:38:19.111Z,66.30
2024-05-09T18:40:51.808Z,66.80
2024-05-09T18:43:26.204Z,67.60
2024-05-09T18:46:01.371Z,65.90
2024-05-09T18:48:28.898Z,65.10
2024-05-09T18:50:59.008Z,67.60
2024-05-09T18:53:29.088Z,67.60
2024-05-09T18:55:59.142Z,66.80
2024-05-09T18:58:29.140Z,67.90
2024-05-09T19:00:58.446Z,68.20
2024-05-09T19:03:30.115Z,67.90
2024-05-09T19:05:57.805Z,68.60
2024-05-09T19:08:28.382Z,67.50
2024-05-09T19:10:55.894Z,68.50
2024-05-09T19:13:28.846Z,68.60
2024-05-09T19:15:57.117Z,70.20
2024-05-09T19:18:27.239Z,69.70
2024-05-09T19:20:54.734Z,68.90
2024-05-09T19:23:24.839Z,69.00
2024-05-09T19:25:52.290Z,69.30
2024-05-09T19:28:22.439Z,69.80
2024-05-09T19:30:52.800Z,69.60
2024-05-09T19:33:22.933Z,70.20
2024-05-09T19:35:50.435Z,69.50
2024-05-09T19:38:20.922Z,70.70
2024-05-09T19:40:48.555Z,70.00
2024-05-09T19:43:18.983Z,70.30
2024-05-09T19:45:47.080Z,70.90
2024-05-09T19:48:19.886Z,71.20
2024-05-09T19:50:50.548Z,71.10
2024-05-09T19:53:22.256Z,71.00
2024-05-09T19:55:49.656Z,71.00
2024-05-09T19:58:20.679Z,72.00
2024-05-09T20:00:49.378Z,71.30
2024-05-09T20:03:22.112Z,71.40
2024-05-09T20:05:49.834Z,71.60
2024-05-09T20:08:19.867Z,72.30
2024-05-09T20:10:47.453Z,72.30
2024-05-09T20:13:17.623Z,72.50
2024-05-09T20:15:45.187Z,72.50
2024-05-09T20:18:15.334Z,72.90
2024-05-09T20:20:46.127Z,72.30
2024-05-09T20:23:17.192Z,72.70
2024-05-09T20:25:44.605Z,73.20
2024-05-09T20:28:14.844Z,73.10
2024-05-09T20:30:42.534Z,72.30
2024-05-09T20:33:13.992Z,73.10
2024-05-09T20:35:41.631Z,72.50
2024-05-09T20:38:14.243Z,73.60
2024-05-09T20:40:41.780Z,73.20
2024-05-09T20:43:12.054Z,73.70
2024-05-09T20:45:40.489Z,73.90
2024-05-09T20:48:12.044Z,73.60
2024-05-09T20:50:41.977Z,73.80
2024-05-09T20:53:15.825Z,74.20
2024-05-09T20:55:43.858Z,74.10
2024-05-09T20:58:14.586Z,74.10
2024-05-09T21:00:44.890Z,74.00
2024-05-09T21:03:17.883Z,74.30
2024-05-09T21:05:46.597Z,74.20
2024-05-09T21:08:19.805Z,74.40
2024-05-09T21:10:47.616Z,74.50
2024-05-09T21:13:17.895Z,74.60
2024-05-09T21:15:45.595Z,75.00
2024-05-09T21:18:15.785Z,75.30
2024-05-09T21:20:43.356Z,75.40
2024-05-09T21:23:13.358Z,76.20
2024-05-09T21:25:43.456Z,75.60
2024-05-09T21:28:14.865Z,76.20
2024-05-09T21:30:43.333Z,78.50
2024-05-09T21:33:15.194Z,76.00
2024-05-09T21:35:44.011Z,73.40
2024-05-09T21:38:15.031Z,72.00
2024-05-09T21:40:45.600Z,71.10
2024-05-09T21:43:15.786Z,70.50
2024-05-09T21:45:43.577Z,70.30
2024-05-09T21:48:15.589Z,70.00
2024-05-09T21:50:43.209Z,69.80
2024-05-09T21:53:13.934Z,69.70
2024-05-09T21:55:44.691Z,69.60
2024-05-09T21:58:15.119Z,69.50
2024-05-09T22:00:45.539Z,69.40
2024-05-09T22:03:17.152Z,69.50
2024-05-09T22:05:45.286Z,69.50
2024-05-09T22:08:15.627Z,69.50
2024-05-09T22:10:45.949Z,69.60
2024-05-09T22:13:16.835Z,69.60
2024-05-09T22:15:44.649Z,69.60
2024-05-09T22:18:14.906Z,69.60
2024-05-09T22:20:45.184Z,69.70
2024-05-09T22:23:17.151Z,69.70
2024-05-09T22:25:47.315Z,69.80
2024-05-09T22:28:18.504Z,69.80
2024-05-09T22:30:47.157Z,69.90
2024-05-09T22:33:18.124Z,70.00
2024-05-09T22:35:45.669Z,70.10
2024-05-09T22:38:15.752Z,70.10
2024-05-09T22:40:48.249Z,70.20
2024-05-09T22:43:24.889Z,70.30
2024-05-09T22:45:53.736Z,70.30
2024-05-09T22:48:24.512Z,70.30
2024-05-09T22:50:52.531Z,70.30
2024-05-09T22:53:25.258Z,70.40
2024-05-09T22:55:53.105Z,70.40
2024-05-09T22:58:26.062Z,70.50
2024-05-09T23:00:53.739Z,70.50
2024-05-09T23:03:24.052Z,70.50
2024-05-09T23:05:51.679Z,70.70
2024-05-09T23:08:21.707Z,70.80
2024-05-09T23:10:49.228Z,70.80
2024-05-09T23:13:19.623Z,71.00
2024-05-09T23:15:49.960Z,71.10
2024-05-09T23:18:20.172Z,71.20
2024-05-09T23:20:47.685Z,71.40
2024-05-09T23:23:17.755Z,71.50
2024-05-09T23:25:45.176Z,71.60
2024-05-09T23:28:15.646Z,71.70
2024-05-09T23:30:43.107Z,71.90
2024-05-09T23:33:16.182Z,71.80
2024-05-09T23:35:44.525Z,71.90
2024-05-09T23:38:15.066Z,72.10
2024-05-09T23:40:43.256Z,72.20
2024-05-09T23:43:14.172Z,72.30
2024-05-09T23:45:42.788Z,72.30
2024-05-09T23:48:15.772Z,72.50
2024-05-09T23:50:44.196Z,72.70
2024-05-09T23:53:14.492Z,72.90
2024-05-09T23:55:42.112Z,73.10
2024-05-09T23:58:12.461Z,73.50
